sensor_id;sensor_type;location;lat;lon;timestamp;pressure;altitude;pressure_sealevel;temperature;humidity
35519;BME280;21627;48.216;16.482;2023-08-21T00:00:20;100299.09;;;21.96;100.00
35519;BME280;21627;48.216;16.482;2023-08-21T00:02:47;100306.28;;;21.93;100.00
35519;BME280;21627;48.216;16.482;2023-08-21T00:05:14;100300.38;;;21.86;100.00
35519;BME280;21627;48.216;16.482;2023-08-21T00:07:41;100289.16;;;21.81;100.00
35519;BME280;21627;48.216;16.482;2023-08-21T00:10:10;100293.44;;;21.83;100.00
35519;BME280;21627;48.216;16.482;2023-08-21T00:12:39;100291.78;;;21.81;100.00
35519;BME280;21627;48.216;16.482;2023-08-21T00:15:07;100287.66;;;21.74;100.00
35519;BME280;21627;48.216;16.482;2023-08-21T00:17:36;100296.25;;;21.79;100.00
35519;BME280;21627;48.216;16.482;2023-08-21T00:20:05;100296.38;;;21.76;100.00
35519;BME280;21627;48.216;16.482;2023-08-21T00:22:32;100295.69;;;21.71;100.00
35519;BME280;21627;48.216;16.482;2023-08-21T00:24:59;100293.00;;;21.72;100.00
35519;BME280;21627;48.216;16.482;2023-08-21T00:27:26;100291.34;;;21.70;100.00
35519;BME280;21627;48.216;16.482;2023-08-21T00:29:53;100290.66;;;21.65;100.00
35519;BME280;21627;48.216;16.482;2023-08-21T00:32:20;100275.19;;;21.55;100.00
35519;BME280;21627;48.216;16.482;2023-08-21T00:34:47;100291.78;;;21.57;100.00
35519;BME280;21627;48.216;16.482;2023-08-21T00:37:15;100291.03;;;21.54;100.00
35519;BME280;21627;48.216;16.482;2023-08-21T00:39:42;100280.78;;;21.46;100.00
35519;BME280;21627;48.216;16.482;2023-08-21T00:42:09;100280.59;;;21.52;100.00
35519;BME280;21627;48.216;16.482;2023-08-21T00:44:36;100281.44;;;21.53;100.00
35519;BME280;21627;48.216;16.482;2023-08-21T00:47:03;100291.19;;;21.49;100.00
35519;BME280;21627;48.216;16.482;2023-08-21T00:49:31;100281.72;;;21.45;100.00
35519;BME280;21627;48.216;16.482;2023-08-21T00:51:58;100285.25;;;21.44;100.00
35519;BME280;21627;48.216;16.482;2023-08-21T00:54:26;100276.44;;;21.45;100.00
35519;BME280;21627;48.216;16.482;2023-08-21T00:56:53;100281.88;;;21.41;100.00
35519;BME280;21627;48.216;16.482;2023-08-21T00:59:21;100275.16;;;21.32;100.00
35519;BME280;21627;48.216;16.482;2023-08-21T01:01:49;100272.63;;;21.29;100.00
35519;BME280;21627;48.216;16.482;2023-08-21T01:04:16;100278.84;;;21.26;100.00
35519;BME280;21627;48.216;16.482;2023-08-21T01:06:43;100279.69;;;21.27;100.00
35519;BME280;21627;48.216;16.482;2023-08-21T01:09:31;100285.88;;;21.26;100.00
35519;BME280;21627;48.216;16.482;2023-08-21T01:12:16;100290.22;;;21.27;100.00
35519;BME280;21627;48.216;16.482;2023-08-21T01:14:59;100292.06;;;21.25;100.00
35519;BME280;21627;48.216;16.482;2023-08-21T01:17:29;100284.34;;;21.20;100.00
35519;BME280;21627;48.216;16.482;2023-08-21T01:20:00;100290.44;;;21.21;100.00
35519;BME280;21627;48.216;16.482;2023-08-21T01:22:35;100279.34;;;21.12;100.00
35519;BME280;21627;48.216;16.482;2023-08-21T01:25:07;100279.47;;;21.09;100.00
35519;BME280;21627;48.216;16.482;2023-08-21T01:27:35;100277.78;;;21.07;100.00
35519;BME280;21627;48.216;16.482;2023-08-21T01:30:03;100282.97;;;21.08;100.00
35519;BME280;21627;48.216;16.482;2023-08-21T01:33:08;100288.25;;;21.08;100.00
35519;BME280;21627;48.216;16.482;2023-08-21T01:35:38;100289.97;;;21.09;100.00
35519;BME280;21627;48.216;16.482;2023-08-21T01:38:05;100288.31;;;21.07;100.00
35519;BME280;21627;48.216;16.482;2023-08-21T01:40:33;100294.44;;;21.07;100.00
35519;BME280;21627;48.216;16.482;2023-08-21T01:43:00;100284.19;;;21.00;100.00
35519;BME280;21627;48.216;16.482;2023-08-21T01:45:27;100293.72;;;21.02;100.00
35519;BME280;21627;48.216;16.482;2023-08-21T01:47:54;100286.72;;;21.01;100.00
35519;BME280;21627;48.216;16.482;2023-08-21T01:50:21;100288.50;;;21.01;100.00
35519;BME280;21627;48.216;16.482;2023-08-21T01:52:48;100284.44;;;20.92;100.00
35519;BME280;21627;48.216;16.482;2023-08-21T01:55:16;100291.41;;;20.93;100.00
35519;BME280;21627;48.216;16.482;2023-08-21T01:57:43;100285.41;;;20.89;100.00
35519;BME280;21627;48.216;16.482;2023-08-21T02:00:11;100282.16;;;20.81;100.00
35519;BME280;21627;48.216;16.482;2023-08-21T02:02:39;100285.75;;;20.79;100.00
35519;BME280;21627;48.216;16.482;2023-08-21T02:05:07;100286.78;;;20.74;100.00
35519;BME280;21627;48.216;16.482;2023-08-21T02:07:34;100286.88;;;20.71;100.00
35519;BME280;21627;48.216;16.482;2023-08-21T02:10:01;100283.38;;;20.71;100.00
35519;BME280;21627;48.216;16.482;2023-08-21T02:12:28;100271.41;;;20.62;100.00
35519;BME280;21627;48.216;16.482;2023-08-21T02:14:55;100277.63;;;20.60;100.00
35519;BME280;21627;48.216;16.482;2023-08-21T02:17:26;100275.16;;;20.53;100.00
35519;BME280;21627;48.216;16.482;2023-08-21T02:19:53;100285.56;;;20.58;100.00
35519;BME280;21627;48.216;16.482;2023-08-21T02:22:20;100277.84;;;20.52;100.00
35519;BME280;21627;48.216;16.482;2023-08-21T02:24:47;100277.06;;;20.48;100.00
35519;BME280;21627;48.216;16.482;2023-08-21T02:27:14;100276.91;;;20.55;100.00
35519;BME280;21627;48.216;16.482;2023-08-21T02:29:41;100277.88;;;20.50;100.00
35519;BME280;21627;48.216;16.482;2023-08-21T02:32:08;100280.63;;;20.47;100.00
35519;BME280;21627;48.216;16.482;2023-08-21T02:34:36;100279.00;;;20.43;100.00
35519;BME280;21627;48.216;16.482;2023-08-21T02:37:03;100285.97;;;20.44;100.00
35519;BME280;21627;48.216;16.482;2023-08-21T02:39:30;100286.00;;;20.43;100.00
35519;BME280;21627;48.216;16.482;2023-08-21T02:41:57;100277.31;;;20.41;100.00
35519;BME280;21627;48.216;16.482;2023-08-21T02:44:24;100282.66;;;20.39;100.00
35519;BME280;21627;48.216;16.482;2023-08-21T02:46:51;100284.34;;;20.40;100.00
35519;BME280;21627;48.216;16.482;2023-08-21T02:49:18;100284.31;;;20.42;100.00
35519;BME280;21627;48.216;16.482;2023-08-21T02:51:45;100280.00;;;20.39;100.00
35519;BME280;21627;48.216;16.482;2023-08-21T02:54:12;100274.09;;;20.32;100.00
35519;BME280;21627;48.216;16.482;2023-08-21T02:56:39;100275.88;;;20.32;100.00
35519;BME280;21627;48.216;16.482;2023-08-21T02:59:06;100280.88;;;20.40;100.00
35519;BME280;21627;48.216;16.482;2023-08-21T03:01:33;100282.75;;;20.36;100.00
35519;BME280;21627;48.216;16.482;2023-08-21T03:04:02;100283.69;;;20.34;100.00
35519;BME280;21627;48.216;16.482;2023-08-21T03:06:29;100291.72;;;20.29;100.00
35519;BME280;21627;48.216;16.482;2023-08-21T03:08:56;100284.66;;;20.31;100.00
35519;BME280;21627;48.216;16.482;2023-08-21T03:11:23;100291.63;;;20.32;100.00
35519;BME280;21627;48.216;16.482;2023-08-21T03:13:50;100289.03;;;20.30;100.00
35519;BME280;21627;48.216;16.482;2023-08-21T03:16:17;100288.31;;;20.25;100.00
35519;BME280;21627;48.216;16.482;2023-08-21T03:18:57;100279.47;;;20.28;100.00
35519;BME280;21627;48.216;16.482;2023-08-21T03:21:24;100288.13;;;20.31;100.00
35519;BME280;21627;48.216;16.482;2023-08-21T03:23:56;100296.88;;;20.32;100.00
35519;BME280;21627;48.216;16.482;2023-08-21T03:26:24;100287.31;;;20.29;100.00
35519;BME280;21627;48.216;16.482;2023-08-21T03:28:51;100290.91;;;20.27;100.00
35519;BME280;21627;48.216;16.482;2023-08-21T03:31:18;100285.59;;;20.28;100.00
35519;BME280;21627;48.216;16.482;2023-08-21T03:33:46;100297.00;;;20.27;100.00
35519;BME280;21627;48.216;16.482;2023-08-21T03:36:13;100299.66;;;20.26;100.00
35519;BME280;21627;48.216;16.482;2023-08-21T03:38:40;100287.56;;;20.22;100.00
35519;BME280;21627;48.216;16.482;2023-08-21T03:41:08;100291.97;;;20.21;100.00
35519;BME280;21627;48.216;16.482;2023-08-21T03:43:35;100298.88;;;20.24;100.00
35519;BME280;21627;48.216;16.482;2023-08-21T03:46:03;100289.34;;;20.21;100.00
35519;BME280;21627;48.216;16.482;2023-08-21T03:48:30;100290.22;;;20.20;100.00
35519;BME280;21627;48.216;16.482;2023-08-21T03:50:57;100299.75;;;20.24;100.00
35519;BME280;21627;48.216;16.482;2023-08-21T03:53:24;100293.78;;;20.19;100.00
35519;BME280;21627;48.216;16.482;2023-08-21T03:55:51;100302.47;;;20.21;100.00
35519;BME280;21627;48.216;16.482;2023-08-21T03:58:19;100303.47;;;20.17;100.00
35519;BME280;21627;48.216;16.482;2023-08-21T04:00:46;100297.38;;;20.15;100.00
35519;BME280;21627;48.216;16.482;2023-08-21T04:03:13;100295.69;;;20.14;100.00
35519;BME280;21627;48.216;16.482;2023-08-21T04:05:40;100300.88;;;20.16;100.00
35519;BME280;21627;48.216;16.482;2023-08-21T04:08:07;100302.69;;;20.14;100.00
35519;BME280;21627;48.216;16.482;2023-08-21T04:10:34;100294.91;;;20.10;100.00
35519;BME280;21627;48.216;16.482;2023-08-21T04:13:02;100284.63;;;20.03;100.00
35519;BME280;21627;48.216;16.482;2023-08-21T04:15:30;100295.78;;;20.11;100.00
35519;BME280;21627;48.216;16.482;2023-08-21T04:17:57;100294.03;;;20.10;100.00
35519;BME280;21627;48.216;16.482;2023-08-21T04:20:24;100299.28;;;20.10;100.00
35519;BME280;21627;48.216;16.482;2023-08-21T04:22:51;100307.22;;;20.08;100.00
35519;BME280;21627;48.216;16.482;2023-08-21T04:25:19;100307.22;;;20.08;100.00
35519;BME280;21627;48.216;16.482;2023-08-21T04:27:46;100306.53;;;20.03;100.00
35519;BME280;21627;48.216;16.482;2023-08-21T04:30:13;100307.28;;;20.07;100.00
35519;BME280;21627;48.216;16.482;2023-08-21T04:32:40;100295.91;;;20.06;100.00
35519;BME280;21627;48.216;16.482;2023-08-21T04:35:08;100299.50;;;20.04;100.00
35519;BME280;21627;48.216;16.482;2023-08-21T04:37:42;100303.69;;;20.09;100.00
35519;BME280;21627;48.216;16.482;2023-08-21T04:40:11;100308.00;;;20.12;100.00
35519;BME280;21627;48.216;16.482;2023-08-21T04:42:38;100304.53;;;20.10;100.00
35519;BME280;21627;48.216;16.482;2023-08-21T04:45:06;100305.25;;;20.15;100.00
35519;BME280;21627;48.216;16.482;2023-08-21T04:47:34;100311.94;;;20.25;100.00
35519;BME280;21627;48.216;16.482;2023-08-21T04:50:01;100316.19;;;20.31;100.00
35519;BME280;21627;48.216;16.482;2023-08-21T04:52:30;100319.56;;;20.35;100.00
35519;BME280;21627;48.216;16.482;2023-08-21T04:54:57;100323.88;;;20.36;100.00
35519;BME280;21627;48.216;16.482;2023-08-21T04:57:24;100328.09;;;20.41;100.00
35519;BME280;21627;48.216;16.482;2023-08-21T04:59:51;100319.34;;;20.41;100.00
35519;BME280;21627;48.216;16.482;2023-08-21T05:02:18;100332.22;;;20.48;100.00
35519;BME280;21627;48.216;16.482;2023-08-21T05:04:45;100323.41;;;20.51;100.00
35519;BME280;21627;48.216;16.482;2023-08-21T05:07:12;100336.44;;;20.56;100.00
35519;BME280;21627;48.216;16.482;2023-08-21T05:09:39;100338.88;;;20.62;100.00
35519;BME280;21627;48.216;16.482;2023-08-21T05:12:08;100330.03;;;20.64;100.00
35519;BME280;21627;48.216;16.482;2023-08-21T05:14:35;100333.38;;;20.69;100.00
35519;BME280;21627;48.216;16.482;2023-08-21T05:17:04;100336.72;;;20.74;100.00
35519;BME280;21627;48.216;16.482;2023-08-21T05:19:31;100335.69;;;20.79;100.00
35519;BME280;21627;48.216;16.482;2023-08-21T05:21:58;100339.00;;;20.84;100.00
35519;BME280;21627;48.216;16.482;2023-08-21T05:24:25;100328.50;;;20.84;100.00
35519;BME280;21627;48.216;16.482;2023-08-21T05:26:52;100334.31;;;20.93;100.00
35519;BME280;21627;48.216;16.482;2023-08-21T05:29:19;100342.88;;;21.00;100.00
35519;BME280;21627;48.216;16.482;2023-08-21T05:31:46;100339.16;;;21.06;100.00
35519;BME280;21627;48.216;16.482;2023-08-21T05:34:13;100339.81;;;21.12;100.00
35519;BME280;21627;48.216;16.482;2023-08-21T05:36:40;100340.47;;;21.19;100.00
35519;BME280;21627;48.216;16.482;2023-08-21T05:39:08;100336.09;;;21.20;100.00
35519;BME280;21627;48.216;16.482;2023-08-21T05:41:35;100330.44;;;21.30;100.00
35519;BME280;21627;48.216;16.482;2023-08-21T05:44:02;100337.38;;;21.33;100.00
35519;BME280;21627;48.216;16.482;2023-08-21T05:46:29;100341.41;;;21.43;100.00
35519;BME280;21627;48.216;16.482;2023-08-21T05:48:56;100337.69;;;21.49;100.00
35519;BME280;21627;48.216;16.482;2023-08-21T05:51:24;100337.59;;;21.52;100.00
35519;BME280;21627;48.216;16.482;2023-08-21T05:53:51;100342.38;;;21.66;100.00
35519;BME280;21627;48.216;16.482;2023-08-21T05:56:18;100343.91;;;21.71;100.00
35519;BME280;21627;48.216;16.482;2023-08-21T05:58:45;100339.41;;;21.75;100.00
35519;BME280;21627;48.216;16.482;2023-08-21T06:01:12;100341.91;;;21.78;100.00
35519;BME280;21627;48.216;16.482;2023-08-21T06:03:39;100338.19;;;21.83;100.00
35519;BME280;21627;48.216;16.482;2023-08-21T06:06:07;100339.69;;;21.91;100.00
35519;BME280;21627;48.216;16.482;2023-08-21T06:08:34;100337.78;;;21.94;100.00
35519;BME280;21627;48.216;16.482;2023-08-21T06:11:01;100343.66;;;22.02;100.00
35519;BME280;21627;48.216;16.482;2023-08-21T06:13:28;100339.06;;;22.08;100.00
35519;BME280;21627;48.216;16.482;2023-08-21T06:15:55;100345.00;;;22.13;100.00
35519;BME280;21627;48.216;16.482;2023-08-21T06:18:22;100342.16;;;22.17;100.00
35519;BME280;21627;48.216;16.482;2023-08-21T06:20:49;100346.28;;;22.26;100.00
35519;BME280;21627;48.216;16.482;2023-08-21T06:23:21;100350.44;;;22.32;100.00
35519;BME280;21627;48.216;16.482;2023-08-21T06:25:48;100348.47;;;22.37;100.00
35519;BME280;21627;48.216;16.482;2023-08-21T06:28:16;100340.44;;;22.40;100.00
35519;BME280;21627;48.216;16.482;2023-08-21T06:30:43;100348.06;;;22.47;100.00
35519;BME280;21627;48.216;16.482;2023-08-21T06:33:10;100344.38;;;22.52;100.00
35519;BME280;21627;48.216;16.482;2023-08-21T06:35:38;100340.72;;;22.56;100.00
35519;BME280;21627;48.216;16.482;2023-08-21T06:38:05;100339.75;;;22.58;100.00
35519;BME280;21627;48.216;16.482;2023-08-21T06:40:32;100345.41;;;22.69;100.00
35519;BME280;21627;48.216;16.482;2023-08-21T06:42:59;100341.94;;;22.69;100.00
35519;BME280;21627;48.216;16.482;2023-08-21T06:45:26;100345.19;;;22.76;100.00
35519;BME280;21627;48.216;16.482;2023-08-21T06:47:57;100341.47;;;22.80;100.00
35519;BME280;21627;48.216;16.482;2023-08-21T06:50:24;100340.59;;;22.81;100.00
35519;BME280;21627;48.216;16.482;2023-08-21T06:52:51;100342.81;;;22.90;100.00
35519;BME280;21627;48.216;16.482;2023-08-21T06:55:19;100346.91;;;22.99;100.00
35519;BME280;21627;48.216;16.482;2023-08-21T06:57:46;100348.38;;;23.06;100.00
35519;BME280;21627;48.216;16.482;2023-08-21T07:00:13;100352.25;;;23.18;100.00
35519;BME280;21627;48.216;16.482;2023-08-21T07:02:41;100337.50;;;23.14;100.00
35519;BME280;21627;48.216;16.482;2023-08-21T07:05:08;100352.78;;;23.26;100.00
35519;BME280;21627;48.216;16.482;2023-08-21T07:07:38;100342.00;;;23.30;100.00
35519;BME280;21627;48.216;16.482;2023-08-21T07:10:05;100343.47;;;23.38;100.00
35519;BME280;21627;48.216;16.482;2023-08-21T07:12:33;100335.50;;;23.39;100.00
35519;BME280;21627;48.216;16.482;2023-08-21T07:15:00;100341.16;;;23.50;100.00
35519;BME280;21627;48.216;16.482;2023-08-21T07:17:27;100336.66;;;23.52;100.00
35519;BME280;21627;48.216;16.482;2023-08-21T07:19:54;100342.41;;;23.62;100.00
35519;BME280;21627;48.216;16.482;2023-08-21T07:22:21;100343.00;;;23.69;100.00
35519;BME280;21627;48.216;16.482;2023-08-21T07:24:48;100354.78;;;23.81;100.00
35519;BME280;21627;48.216;16.482;2023-08-21T07:27:15;100349.25;;;23.87;100.00
35519;BME280;21627;48.216;16.482;2023-08-21T07:29:43;100349.81;;;23.93;100.00
35519;BME280;21627;48.216;16.482;2023-08-21T07:32:10;100345.13;;;24.00;100.00
35519;BME280;21627;48.216;16.482;2023-08-21T07:34:37;100348.81;;;24.15;100.00
35519;BME280;21627;48.216;16.482;2023-08-21T07:37:04;100348.03;;;24.32;100.00
35519;BME280;21627;48.216;16.482;2023-08-21T07:39:31;100346.72;;;24.40;100.00
35519;BME280;21627;48.216;16.482;2023-08-21T07:41:58;100345.53;;;24.48;100.00
35519;BME280;21627;48.216;16.482;2023-08-21T07:44:26;100346.88;;;24.56;100.00
35519;BME280;21627;48.216;16.482;2023-08-21T07:46:53;100346.75;;;24.59;100.00
35519;BME280;21627;48.216;16.482;2023-08-21T07:49:20;100347.59;;;24.60;100.00
35519;BME280;21627;48.216;16.482;2023-08-21T07:51:47;100349.88;;;24.68;100.00
35519;BME280;21627;48.216;16.482;2023-08-21T07:54:15;100344.19;;;24.75;100.00
35519;BME280;21627;48.216;16.482;2023-08-21T07:56:42;100344.66;;;24.83;100.00
35519;BME280;21627;48.216;16.482;2023-08-21T07:59:09;100349.56;;;24.91;100.00
35519;BME280;21627;48.216;16.482;2023-08-21T08:01:36;100343.91;;;24.99;100.00
35519;BME280;21627;48.216;16.482;2023-08-21T08:04:04;100352.47;;;25.04;100.00
35519;BME280;21627;48.216;16.482;2023-08-21T08:06:33;100348.50;;;25.13;100.00
35519;BME280;21627;48.216;16.482;2023-08-21T08:09:00;100344.56;;;25.21;100.00
35519;BME280;21627;48.216;16.482;2023-08-21T08:11:27;100343.06;;;25.33;100.00
35519;BME280;21627;48.216;16.482;2023-08-21T08:13:54;100334.19;;;25.34;100.00
35519;BME280;21627;48.216;16.482;2023-08-21T08:16:22;100338.06;;;25.44;100.00
35519;BME280;21627;48.216;16.482;2023-08-21T08:18:50;100340.06;;;25.57;100.00
35519;BME280;21627;48.216;16.482;2023-08-21T08:21:17;100337.63;;;25.69;100.00
35519;BME280;21627;48.216;16.482;2023-08-21T08:23:44;100341.66;;;25.77;100.00
35519;BME280;21627;48.216;16.482;2023-08-21T08:26:11;100347.19;;;25.89;100.00
35519;BME280;21627;48.216;16.482;2023-08-21T08:28:39;100332.72;;;25.95;100.00
35519;BME280;21627;48.216;16.482;2023-08-21T08:31:06;100337.72;;;26.17;100.00
35519;BME280;21627;48.216;16.482;2023-08-21T08:33:33;100342.50;;;26.26;100.00
35519;BME280;21627;48.216;16.482;2023-08-21T08:36:00;100330.63;;;26.33;100.00
35519;BME280;21627;48.216;16.482;2023-08-21T08:38:27;100335.38;;;26.43;100.00
35519;BME280;21627;48.216;16.482;2023-08-21T08:40:55;100340.38;;;26.49;100.00
35519;BME280;21627;48.216;16.482;2023-08-21T08:43:25;100337.78;;;26.63;100.00
35519;BME280;21627;48.216;16.482;2023-08-21T08:45:57;100337.09;;;26.75;100.00
35519;BME280;21627;48.216;16.482;2023-08-21T08:48:25;100337.41;;;26.85;100.00
35519;BME280;21627;48.216;16.482;2023-08-21T08:50:53;100336.69;;;26.97;98.61
35519;BME280;21627;48.216;16.482;2023-08-21T08:53:25;100346.41;;;27.13;100.00
35519;BME280;21627;48.216;16.482;2023-08-21T08:55:54;100329.63;;;27.12;96.65
35519;BME280;21627;48.216;16.482;2023-08-21T08:58:21;100342.97;;;27.27;95.36
35519;BME280;21627;48.216;16.482;2023-08-21T09:00:49;100334.69;;;27.31;93.73
35519;BME280;21627;48.216;16.482;2023-08-21T09:03:16;100335.13;;;27.39;94.87
35519;BME280;21627;48.216;16.482;2023-08-21T09:05:43;100331.88;;;27.49;91.24
35519;BME280;21627;48.216;16.482;2023-08-21T09:08:12;100333.50;;;27.51;92.90
35519;BME280;21627;48.216;16.482;2023-08-21T09:10:42;100327.91;;;27.70;96.47
35519;BME280;21627;48.216;16.482;2023-08-21T09:13:14;100338.56;;;27.85;92.72
35519;BME280;21627;48.216;16.482;2023-08-21T09:15:45;100337.97;;;27.94;90.00
35519;BME280;21627;48.216;16.482;2023-08-21T09:18:15;100330.69;;;27.97;91.29
35519;BME280;21627;48.216;16.482;2023-08-21T09:20:42;100332.63;;;28.22;91.59
35519;BME280;21627;48.216;16.482;2023-08-21T09:23:19;100325.00;;;28.31;89.13
35519;BME280;21627;48.216;16.482;2023-08-21T09:25:49;100327.72;;;28.43;87.99
35519;BME280;21627;48.216;16.482;2023-08-21T09:28:20;100328.09;;;28.52;88.40
35519;BME280;21627;48.216;16.482;2023-08-21T09:30:53;100318.88;;;28.70;83.20
35519;BME280;21627;48.216;16.482;2023-08-21T09:33:23;100318.72;;;28.86;86.04
35519;BME280;21627;48.216;16.482;2023-08-21T09:35:54;100318.75;;;28.99;82.20
35519;BME280;21627;48.216;16.482;2023-08-21T09:38:22;100314.19;;;29.01;83.04
35519;BME280;21627;48.216;16.482;2023-08-21T09:40:52;100311.09;;;29.07;83.82
35519;BME280;21627;48.216;16.482;2023-08-21T09:43:23;100306.97;;;29.16;81.51
35519;BME280;21627;48.216;16.482;2023-08-21T09:45:53;100304.84;;;29.21;83.28
35519;BME280;21627;48.216;16.482;2023-08-21T09:48:23;100301.66;;;29.41;78.50
35519;BME280;21627;48.216;16.482;2023-08-21T09:50:51;100298.00;;;29.42;82.97
35519;BME280;21627;48.216;16.482;2023-08-21T09:53:22;100299.38;;;29.48;82.61
35519;BME280;21627;48.216;16.482;2023-08-21T09:55:54;100298.22;;;29.65;80.99
35519;BME280;21627;48.216;16.482;2023-08-21T09:58:22;100302.03;;;29.73;82.26
35519;BME280;21627;48.216;16.482;2023-08-21T10:00:52;100300.31;;;29.85;79.64
35519;BME280;21627;48.216;16.482;2023-08-21T10:03:23;100290.59;;;29.97;80.45
35519;BME280;21627;48.216;16.482;2023-08-21T10:05:56;100297.19;;;30.04;78.85
35519;BME280;21627;48.216;16.482;2023-08-21T10:08:25;100286.72;;;30.01;76.64
35519;BME280;21627;48.216;16.482;2023-08-21T10:10:55;100297.75;;;30.20;77.38
35519;BME280;21627;48.216;16.482;2023-08-21T10:13:23;100287.56;;;30.38;77.55
35519;BME280;21627;48.216;16.482;2023-08-21T10:15:50;100300.16;;;30.49;74.37
35519;BME280;21627;48.216;16.482;2023-08-21T10:20:48;100288.19;;;30.66;71.75
35519;BME280;21627;48.216;16.482;2023-08-21T10:26:01;100284.03;;;30.86;73.42
35519;BME280;21627;48.216;16.482;2023-08-21T10:29:02;100287.84;;;30.95;70.61
35519;BME280;21627;48.216;16.482;2023-08-21T10:31:38;100282.00;;;31.01;69.55
35519;BME280;21627;48.216;16.482;2023-08-21T10:34:11;100282.03;;;31.12;68.36
35519;BME280;21627;48.216;16.482;2023-08-21T10:42:08;100278.19;;;31.39;66.58
35519;BME280;21627;48.216;16.482;2023-08-21T10:49:41;100286.81;;;31.54;62.68
35519;BME280;21627;48.216;16.482;2023-08-21T10:52:12;100275.88;;;31.57;65.37
35519;BME280;21627;48.216;16.482;2023-08-21T10:54:50;100275.41;;;31.63;63.47
35519;BME280;21627;48.216;16.482;2023-08-21T10:57:18;100271.34;;;31.80;60.21
35519;BME280;21627;48.216;16.482;2023-08-21T10:59:57;100275.88;;;31.90;60.17
35519;BME280;21627;48.216;16.482;2023-08-21T11:02:28;100279.47;;;32.12;59.83
35519;BME280;21627;48.216;16.482;2023-08-21T11:05:00;100277.41;;;32.16;62.12
35519;BME280;21627;48.216;16.482;2023-08-21T11:07:28;100272.91;;;32.16;59.25
35519;BME280;21627;48.216;16.482;2023-08-21T11:09:56;100273.00;;;32.26;59.27
35519;BME280;21627;48.216;16.482;2023-08-21T11:12:24;100270.19;;;32.27;57.36
35519;BME280;21627;48.216;16.482;2023-08-21T11:14:51;100264.44;;;32.32;56.01
35519;BME280;21627;48.216;16.482;2023-08-21T11:17:18;100271.00;;;32.39;57.70
35519;BME280;21627;48.216;16.482;2023-08-21T11:19:46;100277.81;;;32.43;53.96
35519;BME280;21627;48.216;16.482;2023-08-21T11:22:15;100268.06;;;32.42;53.27
35519;BME280;21627;48.216;16.482;2023-08-21T11:24:48;100261.47;;;32.46;53.23
35519;BME280;21627;48.216;16.482;2023-08-21T11:27:18;100263.75;;;32.62;56.70
35519;BME280;21627;48.216;16.482;2023-08-21T11:29:50;100255.13;;;32.80;58.68
35519;BME280;21627;48.216;16.482;2023-08-21T11:32:20;100266.22;;;32.96;54.53
35519;BME280;21627;48.216;16.482;2023-08-21T11:34:51;100258.28;;;33.06;55.43
35519;BME280;21627;48.216;16.482;2023-08-21T11:37:20;100260.72;;;33.09;50.92
35519;BME280;21627;48.216;16.482;2023-08-21T11:39:55;100259.88;;;33.18;50.90
35519;BME280;21627;48.216;16.482;2023-08-21T11:42:30;100250.91;;;33.29;49.94
35519;BME280;21627;48.216;16.482;2023-08-21T11:45:00;100253.50;;;33.40;47.91
35519;BME280;21627;48.216;16.482;2023-08-21T11:47:34;100257.44;;;33.57;51.08
35519;BME280;21627;48.216;16.482;2023-08-21T11:50:07;100258.59;;;33.74;50.71
35519;BME280;21627;48.216;16.482;2023-08-21T11:52:37;100255.25;;;33.91;48.05
35519;BME280;21627;48.216;16.482;2023-08-21T11:55:09;100250.44;;;34.04;44.47
35519;BME280;21627;48.216;16.482;2023-08-21T11:57:50;100245.78;;;33.97;45.29
35519;BME280;21627;48.216;16.482;2023-08-21T12:00:18;100252.28;;;33.94;48.56
35519;BME280;21627;48.216;16.482;2023-08-21T12:03:00;100244.44;;;34.12;45.83
35519;BME280;21627;48.216;16.482;2023-08-21T12:05:28;100248.69;;;34.15;46.56
35519;BME280;21627;48.216;16.482;2023-08-21T12:07:55;100244.44;;;34.22;47.98
35519;BME280;21627;48.216;16.482;2023-08-21T12:10:28;100238.50;;;34.38;47.82
35519;BME280;21627;48.216;16.482;2023-08-21T12:12:56;100240.91;;;34.41;46.82
35519;BME280;21627;48.216;16.482;2023-08-21T12:15:23;100238.22;;;34.51;46.28
35519;BME280;21627;48.216;16.482;2023-08-21T12:17:50;100237.38;;;34.60;46.39
35519;BME280;21627;48.216;16.482;2023-08-21T12:20:18;100234.44;;;34.63;43.82
35519;BME280;21627;48.216;16.482;2023-08-21T12:22:45;100229.16;;;34.71;41.37
35519;BME280;21627;48.216;16.482;2023-08-21T12:25:13;100215.31;;;34.76;41.64
35519;BME280;21627;48.216;16.482;2023-08-21T12:27:40;100227.25;;;35.01;37.07
35519;BME280;21627;48.216;16.482;2023-08-21T12:30:08;100224.13;;;35.15;41.60
35519;BME280;21627;48.216;16.482;2023-08-21T12:32:35;100225.09;;;35.24;35.55
35519;BME280;21627;48.216;16.482;2023-08-21T12:35:03;100225.44;;;35.39;34.72
35519;BME280;21627;48.216;16.482;2023-08-21T12:37:31;100220.31;;;35.45;33.55
35519;BME280;21627;48.216;16.482;2023-08-21T12:39:58;100216.31;;;35.59;34.32
35519;BME280;21627;48.216;16.482;2023-08-21T12:42:26;100216.13;;;35.61;31.43
35519;BME280;21627;48.216;16.482;2023-08-21T12:44:53;100224.41;;;35.77;33.89
35519;BME280;21627;48.216;16.482;2023-08-21T12:47:20;100207.38;;;35.86;37.72
35519;BME280;21627;48.216;16.482;2023-08-21T12:49:47;100214.81;;;35.92;37.83
35519;BME280;21627;48.216;16.482;2023-08-21T12:52:14;100213.00;;;36.11;38.93
35519;BME280;21627;48.216;16.482;2023-08-21T12:54:44;100218.69;;;36.26;37.22